Time;durP1;ratioP1;P1;durP2;ratioP2;P2;SDS_P1;SDS_P2;PMS_P1;PMS_P2;Temp;Humidity;BMP_temperature;BMP_pressure;BME280_temperature;BME280_humidity;BME280_pressure;Samples;Min_cycle;Max_cycle;Signal;HPM_P1;HPM_P2
2024/01/26 00:02:19;;;;;;;22.75;5.25;;;6.60;99.90;;;10.21;97.32;101562.59;5027624;28;20052;-83
2024/01/26 00:04:45;;;;;;;22.13;5.57;;;6.60;99.90;;;10.35;96.77;101566.34;5001546;28;20037;-81
2024/01/26 00:07:11;;;;;;;21.73;5.30;;;6.70;99.90;;;10.35;96.89;101566.34;5027518;28;20033;-83
2024/01/26 00:09:36;;;;;;;16.85;4.97;;;6.70;99.90;;;10.29;97.63;101567.09;5026547;28;20148;-83
2024/01/26 00:12:02;;;;;;;21.92;5.43;;;6.80;99.90;;;10.40;96.24;101558.44;5024877;28;20087;-83
2024/01/26 00:14:28;;;;;;;23.95;5.18;;;6.80;99.90;;;10.43;95.73;101547.16;5020741;28;20056;-83
2024/01/26 00:16:54;;;;;;;19.67;5.60;;;6.90;99.90;;;10.39;95.58;101551.28;5028197;28;20048;-83
2024/01/26 00:19:19;;;;;;;22.77;5.72;;;6.90;99.90;;;10.65;94.90;101537.06;5031100;28;20492;-83
2024/01/26 00:21:45;;;;;;;19.10;5.45;;;6.90;99.90;;;10.39;94.88;101555.88;5026170;28;20063;-84
2024/01/26 00:24:11;;;;;;;20.08;4.75;;;6.90;99.90;;;10.48;95.10;101565.69;5029483;28;20083;-83
2024/01/26 00:26:37;;;;;;;22.08;4.80;;;6.90;99.90;;;10.54;95.70;101566.75;5044779;28;20033;-84
2024/01/26 00:29:03;;;;;;;18.75;5.10;;;6.90;99.90;;;10.62;94.18;101540.19;5029530;28;20045;-83
2024/01/26 00:31:29;;;;;;;17.95;5.15;;;6.90;99.90;;;10.50;95.29;101550.78;5029758;28;20049;-82
2024/01/26 00:33:54;;;;;;;20.52;5.13;;;6.90;99.90;;;10.60;96.35;101555.06;5030106;28;20091;-83
2024/01/26 00:36:20;;;;;;;17.40;4.80;;;6.90;99.90;;;10.73;94.53;101549.75;5028595;28;20041;-82
2024/01/26 00:38:46;;;;;;;23.73;5.00;;;6.90;99.90;;;10.71;94.49;101538.19;5029940;28;20041;-83
2024/01/26 00:41:12;;;;;;;18.55;4.82;;;6.90;99.90;;;10.78;94.39;101544.53;5029075;28;20499;-83
2024/01/26 00:43:37;;;;;;;17.35;4.80;;;6.90;99.90;;;10.81;94.60;101545.19;5028147;28;20046;-82
2024/01/26 00:46:03;;;;;;;16.60;4.97;;;6.90;99.90;;;10.90;94.64;101547.56;5029682;28;20380;-83
2024/01/26 00:48:29;;;;;;;23.77;5.55;;;6.90;99.90;;;10.72;95.47;101545.31;5029707;28;20580;-83
2024/01/26 00:50:55;;;;;;;21.70;5.00;;;6.90;99.90;;;10.68;95.92;101527.66;5028850;28;20124;-83
2024/01/26 00:53:22;;;;;;;15.90;4.28;;;6.90;99.90;;;10.48;97.02;101522.03;5029918;28;20048;-84
2024/01/26 00:55:49;;;;;;;19.17;4.57;;;6.90;99.90;;;10.74;96.57;101528.75;5045271;28;20033;-83
2024/01/26 00:58:16;;;;;;;20.45;5.50;;;6.90;99.90;;;10.66;97.58;101521.56;5020284;28;20400;-83
2024/01/26 01:00:41;;;;;;;23.58;5.13;;;6.90;99.90;;;10.83;99.26;101518.53;5023950;28;20139;-84
2024/01/26 01:03:07;;;;;;;18.63;5.13;;;6.90;99.90;;;10.83;98.13;101515.81;5012210;28;20069;-83
2024/01/26 01:05:33;;;;;;;17.45;4.43;;;6.90;99.90;;;10.85;99.44;101520.03;5029427;28;20037;-83
2024/01/26 01:07:59;;;;;;;17.42;5.03;;;6.90;99.90;;;10.99;99.55;101518.25;5029222;28;20042;-84
2024/01/26 01:10:25;;;;;;;17.25;4.85;;;6.90;99.90;;;11.01;100.00;101510.72;5030286;28;20112;-83
2024/01/26 01:12:52;;;;;;;18.60;4.63;;;7.00;99.90;;;10.81;100.00;101509.69;5029670;28;20056;-84
2024/01/26 01:15:18;;;;;;;23.75;5.05;;;7.00;99.90;;;10.74;100.00;101502.31;5028013;28;20068;-84
2024/01/26 01:17:46;;;;;;;13.93;3.95;;;7.10;99.90;;;11.03;100.00;101505.88;5029458;28;20538;-84
2024/01/26 01:20:13;;;;;;;19.25;4.25;;;7.00;99.90;;;10.89;100.00;101507.69;5029525;28;20029;-84
2024/01/26 01:22:41;;;;;;;16.80;4.82;;;7.10;99.90;;;10.86;100.00;101505.34;5029230;28;20038;-84
2024/01/26 01:25:14;;;;;;;17.98;4.38;;;7.00;99.90;;;10.85;100.00;101492.75;5011519;28;20515;-82
2024/01/26 01:27:40;;;;;;;21.63;4.63;;;7.10;99.90;;;10.62;100.00;101503.91;5028398;28;20076;-83
2024/01/26 01:30:09;;;;;;;22.92;5.10;;;7.00;99.90;;;10.81;100.00;101487.84;5043072;28;20041;-82
2024/01/26 01:32:35;;;;;;;17.70;4.63;;;7.00;99.90;;;10.87;100.00;101497.97;5009817;28;20080;-83
2024/01/26 01:35:02;;;;;;;17.33;4.45;;;7.00;99.90;;;11.04;100.00;101493.91;5028670;28;20473;-83
2024/01/26 01:37:28;;;;;;;24.80;4.70;;;7.00;99.90;;;11.04;100.00;101488.47;5029349;28;20033;-84
2024/01/26 01:39:53;;;;;;;23.52;4.97;;;7.00;99.90;;;11.03;100.00;101486.78;5028632;28;20032;-81
2024/01/26 01:42:19;;;;;;;17.70;4.50;;;7.10;99.90;;;11.02;100.00;101490.53;5021747;28;20073;-82
2024/01/26 01:44:46;;;;;;;19.52;4.75;;;7.10;99.90;;;10.90;100.00;101492.16;5027536;28;20112;-82
2024/01/26 01:47:15;;;;;;;23.10;4.97;;;7.10;99.90;;;11.27;100.00;101492.81;5012028;28;20052;-82
2024/01/26 01:49:43;;;;;;;24.70;5.32;;;7.10;99.90;;;10.99;100.00;101484.63;5012922;28;20374;-83
2024/01/26 01:52:14;;;;;;;22.83;4.97;;;7.20;99.90;;;11.17;100.00;101484.16;5024424;28;20385;-82
2024/01/26 01:54:40;;;;;;;23.75;4.95;;;7.20;99.90;;;11.00;100.00;101480.84;5025066;28;20073;-81
2024/01/26 01:57:09;;;;;;;23.27;5.32;;;7.20;99.90;;;10.83;100.00;101480.31;5029146;28;20030;-82
2024/01/26 01:59:37;;;;;;;18.02;5.30;;;7.20;99.90;;;10.94;100.00;101482.53;5016376;28;20444;-82
2024/01/26 02:02:03;;;;;;;22.45;5.72;;;7.20;99.90;;;10.85;100.00;101478.22;5034834;28;20033;-81
2024/01/26 02:04:29;;;;;;;21.92;5.43;;;7.20;99.90;;;11.06;100.00;101469.16;5020805;28;20540;-81
2024/01/26 02:06:59;;;;;;;21.48;5.32;;;7.20;99.90;;;10.68;100.00;101467.63;5037411;28;20097;-81
2024/01/26 02:09:25;;;;;;;16.92;5.20;;;7.20;99.90;;;10.78;100.00;101461.81;5012904;28;20082;-81
2024/01/26 02:11:52;;;;;;;20.20;5.50;;;7.10;99.90;;;10.59;100.00;101457.88;5029069;28;20477;-81
2024/01/26 02:14:18;;;;;;;25.45;5.72;;;7.10;99.90;;;10.72;100.00;101457.13;5033810;28;20041;-81
2024/01/26 02:17:00;;;;;;;18.77;5.32;;;7.10;99.90;;;10.74;100.00;101455.91;5033843;28;20033;-82
2024/01/26 02:19:28;;;;;;;19.98;5.15;;;7.00;99.90;;;10.51;100.00;101461.59;5031808;28;20040;-82
2024/01/26 02:21:54;;;;;;;25.10;5.65;;;7.00;99.90;;;10.70;100.00;101454.63;5031068;28;20079;-82
2024/01/26 02:24:20;;;;;;;22.27;5.00;;;7.00;99.90;;;10.67;100.00;101455.03;5031632;28;20033;-83
2024/01/26 02:26:46;;;;;;;18.63;5.35;;;6.90;99.90;;;10.58;100.00;101451.59;5014425;28;20048;-82
2024/01/26 02:29:12;;;;;;;27.55;5.78;;;6.90;99.90;;;10.57;100.00;101454.50;5011693;28;20088;-81
2024/01/26 02:31:38;;;;;;;25.70;5.82;;;6.80;99.90;;;10.62;100.00;101443.84;5016675;28;20045;-80
2024/01/26 02:34:04;;;;;;;19.70;5.10;;;6.80;99.90;;;10.62;100.00;101446.59;5037213;28;20045;-81
2024/01/26 02:36:34;;;;;;;24.70;6.03;;;6.70;99.90;;;10.20;100.00;101427.28;5037554;28;20037;-81
2024/01/26 02:39:00;;;;;;;21.67;5.95;;;6.60;99.90;;;9.93;100.00;101430.59;5032562;28;20382;-81
2024/01/26 02:41:25;;;;;;;25.33;6.15;;;6.60;99.90;;;10.25;100.00;101424.84;5015222;28;20037;-81
2024/01/26 02:43:51;;;;;;;24.15;6.15;;;6.50;99.90;;;9.97;100.00;101413.84;5030648;28;20033;-81
2024/01/26 02:46:17;;;;;;;23.88;6.57;;;6.50;99.90;;;10.14;100.00;101422.63;5020638;28;20370;-82
2024/01/26 02:48:43;;;;;;;22.02;6.50;;;6.50;99.90;;;9.75;100.00;101398.34;5030593;28;20376;-81
2024/01/26 02:51:09;;;;;;;26.98;6.43;;;6.50;99.90;;;9.83;100.00;101404.69;5032711;28;20030;-82
2024/01/26 02:53:42;;;;;;;20.17;6.57;;;6.50;99.90;;;10.17;100.00;101414.91;5032267;28;20049;-82
2024/01/26 02:56:08;;;;;;;19.75;7.25;;;6.50;99.90;;;10.08;100.00;101394.28;5031345;28;20095;-82
2024/01/26 02:58:34;;;;;;;26.67;6.85;;;6.50;99.90;;;10.14;100.00;101407.13;5032151;28;20527;-81
2024/01/26 03:01:02;;;;;;;19.80;6.47;;;6.50;99.90;;;10.07;100.00;101393.41;5031451;28;20034;-81
2024/01/26 03:03:28;;;;;;;23.35;6.72;;;6.50;99.90;;;10.10;100.00;101399.50;5031780;28;20084;-82
2024/01/26 03:05:53;;;;;;;26.52;6.43;;;6.50;99.90;;;10.07;100.00;101400.72;5032320;28;20037;-82
2024/01/26 03:08:19;;;;;;;26.33;7.32;;;6.60;99.90;;;10.00;100.00;101399.84;5030319;28;20052;-81
2024/01/26 03:10:45;;;;;;;20.40;6.35;;;6.60;99.90;;;10.15;100.00;101403.34;5031823;28;20037;-80
2024/01/26 03:13:10;;;;;;;25.30;6.38;;;6.60;99.90;;;10.21;100.00;101396.25;5013888;28;20029;-81
2024/01/26 03:15:36;;;;;;;24.20;6.20;;;6.70;99.90;;;10.22;100.00;101393.34;5032063;28;20382;-81
2024/01/26 03:18:02;;;;;;;20.05;6.30;;;6.70;99.90;;;10.32;100.00;101390.28;5030906;28;20105;-81
2024/01/26 03:20:30;;;;;;;25.25;6.78;;;6.70;99.90;;;10.33;100.00;101388.38;5031880;28;20056;-81
2024/01/26 03:22:55;;;;;;;23.60;6.57;;;6.70;99.90;;;10.33;100.00;101391.09;5031891;28;20033;-82
2024/01/26 03:25:21;;;;;;;27.15;6.88;;;6.80;99.90;;;10.33;100.00;101394.69;5030962;28;20051;-82
2024/01/26 03:27:47;;;;;;;26.55;6.15;;;6.80;99.90;;;10.28;100.00;101374.50;5046824;28;20056;-82
2024/01/26 03:30:12;;;;;;;25.85;6.72;;;6.80;99.90;;;10.49;100.00;101377.22;5031081;28;20063;-82
2024/01/26 03:32:38;;;;;;;27.80;6.68;;;6.80;99.90;;;10.67;100.00;101381.34;5013676;28;20037;-82
2024/01/26 03:35:05;;;;;;;24.08;6.85;;;6.80;99.90;;;10.44;100.00;101376.13;5031778;28;20044;-83
2024/01/26 03:37:30;;;;;;;21.17;7.18;;;6.80;99.90;;;10.48;100.00;101374.72;5030700;28;20142;-81
2024/01/26 03:39:56;;;;;;;27.58;6.90;;;6.80;99.90;;;10.33;100.00;101374.75;5046772;28;20493;-82
2024/01/26 03:42:22;;;;;;;19.33;6.22;;;6.80;99.90;;;10.38;100.00;101369.56;5031740;28;20037;-83
2024/01/26 03:44:47;;;;;;;25.73;6.95;;;6.80;99.90;;;10.28;100.00;101369.03;5030373;28;20404;-82
2024/01/26 03:47:13;;;;;;;23.02;6.28;;;6.80;99.90;;;10.38;100.00;101365.97;5030004;28;20056;-82
2024/01/26 03:49:44;;;;;;;26.80;6.57;;;6.80;99.90;;;10.47;100.00;101359.34;5046892;28;20049;-82
2024/01/26 03:52:11;;;;;;;22.38;6.35;;;6.80;99.90;;;10.56;100.00;101360.91;5030978;28;20158;-82
2024/01/26 03:54:36;;;;;;;26.02;7.43;;;6.80;99.90;;;10.80;100.00;101356.03;5030127;28;20501;-82
2024/01/26 03:57:02;;;;;;;19.73;6.53;;;6.80;99.90;;;10.40;100.00;101351.16;5029956;28;20034;-82
2024/01/26 03:59:28;;;;;;;23.05;6.00;;;6.90;99.90;;;10.61;100.00;101346.66;5030338;28;20125;-82
2024/01/26 04:01:54;;;;;;;21.52;5.78;;;6.90;99.90;;;10.36;100.00;101339.75;5030940;28;20041;-82
2024/01/26 04:04:19;;;;;;;18.33;6.05;;;6.90;99.90;;;10.24;100.00;101345.94;5030599;28;20036;-81
2024/01/26 04:06:45;;;;;;;18.88;5.93;;;6.90;99.90;;;10.21;100.00;101352.63;5030945;28;20385;-81
2024/01/26 04:09:11;;;;;;;20.13;5.90;;;6.90;99.90;;;10.31;100.00;101352.28;5012467;28;20049;-82
2024/01/26 04:11:38;;;;;;;20.67;5.80;;;7.00;99.90;;;10.39;100.00;101334.94;5031113;28;20043;-81
2024/01/26 04:14:04;;;;;;;22.08;6.10;;;7.00;99.90;;;10.32;100.00;101332.16;5029438;28;20045;-81
2024/01/26 04:16:31;;;;;;;23.48;6.80;;;7.00;99.90;;;10.48;100.00;101337.34;5012647;28;20038;-83
2024/01/26 04:18:56;;;;;;;22.25;6.63;;;7.00;99.90;;;10.49;100.00;101333.56;5031418;28;20158;-81
2024/01/26 04:21:22;;;;;;;18.90;5.82;;;7.00;99.90;;;10.43;100.00;101326.19;5030176;28;20048;-83
2024/01/26 04:23:48;;;;;;;19.83;5.75;;;7.00;99.90;;;10.39;100.00;101326.75;5030001;28;20068;-82
2024/01/26 04:26:15;;;;;;;19.48;6.15;;;7.00;99.90;;;10.30;100.00;101315.13;5030663;28;20556;-80
2024/01/26 04:28:41;;;;;;;19.80;5.65;;;7.00;99.90;;;10.47;100.00;101316.56;5046048;28;20076;-82
2024/01/26 04:31:06;;;;;;;17.33;6.47;;;7.10;99.90;;;10.53;100.00;101319.53;5028950;28;20045;-82
2024/01/26 04:33:32;;;;;;;18.08;6.10;;;7.00;99.90;;;10.70;100.00;101314.59;5031169;28;20041;-82
2024/01/26 04:35:58;;;;;;;17.85;6.20;;;7.00;99.90;;;10.54;100.00;101305.69;5030353;28;20033;-81
2024/01/26 04:38:24;;;;;;;17.23;6.22;;;7.10;99.90;;;10.38;100.00;101309.56;5029718;28;20396;-81
2024/01/26 04:40:49;;;;;;;18.40;6.00;;;7.10;99.90;;;10.61;100.00;101303.00;5045290;28;20050;-81
2024/01/26 04:43:15;;;;;;;15.82;6.05;;;7.10;99.90;;;10.65;100.00;101304.28;5029481;28;20057;-82
2024/01/26 04:45:41;;;;;;;17.73;6.28;;;7.10;99.90;;;10.67;100.00;101285.84;5027413;28;20428;-82
2024/01/26 04:48:07;;;;;;;18.27;6.18;;;7.10;99.90;;;10.87;100.00;101290.53;5028055;28;20087;-82
2024/01/26 04:50:33;;;;;;;16.35;6.10;;;7.10;99.90;;;11.02;100.00;101283.03;5032690;28;20100;-83
2024/01/26 04:52:59;;;;;;;20.45;7.60;;;7.20;99.90;;;11.27;100.00;101290.69;5032585;28;20071;-83
2024/01/26 04:55:30;;;;;;;17.80;5.82;;;7.20;99.90;;;11.72;100.00;101289.31;5031018;28;20083;-83
2024/01/26 04:57:56;;;;;;;17.52;6.25;;;7.20;99.90;;;11.36;100.00;101283.97;5029965;28;20045;-83
2024/01/26 05:00:22;;;;;;;16.15;5.95;;;7.20;99.90;;;10.89;100.00;101278.38;5026601;28;20041;-83
2024/01/26 05:02:49;;;;;;;17.33;5.80;;;7.20;99.90;;;11.03;100.00;101262.88;5030402;28;20073;-82
2024/01/26 05:05:15;;;;;;;16.15;5.93;;;7.20;99.90;;;10.92;100.00;101263.47;5030375;28;20061;-82
2024/01/26 05:07:41;;;;;;;18.90;6.10;;;7.30;99.90;;;11.19;100.00;101269.84;5044192;28;20761;-82
2024/01/26 05:10:11;;;;;;;18.95;6.28;;;7.30;99.90;;;11.30;100.00;101264.84;5030365;28;20045;-83
2024/01/26 05:12:37;;;;;;;19.67;6.22;;;7.30;99.90;;;11.16;100.00;101245.69;5012440;28;20634;-83
2024/01/26 05:15:05;;;;;;;17.23;5.88;;;7.30;99.90;;;11.04;100.00;101263.72;5028356;28;20592;-83
2024/01/26 05:17:31;;;;;;;;;;;7.30;99.90;;;11.49;100.00;101261.31;5028246;28;20034;-84
2024/01/26 05:19:57;;;;;;;13.88;6.00;;;7.30;99.90;;;11.15;100.00;101254.09;5027709;28;19963;-83
2024/01/26 05:22:22;;;;;;;14.63;6.53;;;7.40;99.90;;;11.04;100.00;101253.63;5027454;28;20102;-82
2024/01/26 05:24:48;;;;;;;15.60;6.50;;;7.30;99.90;;;11.10;100.00;101248.41;5028192;28;20440;-83
2024/01/26 05:27:14;;;;;;;13.63;6.95;;;7.40;99.90;;;11.16;100.00;101242.97;5027252;28;20044;-83
2024/01/26 05:29:40;;;;;;;13.43;6.43;;;7.40;99.90;;;11.35;100.00;101235.84;5026947;28;20046;-83
2024/01/26 05:32:06;;;;;;;14.15;7.00;;;7.40;99.90;;;11.03;100.00;101223.81;5027055;28;20064;-84
2024/01/26 05:34:32;;;;;;;14.10;6.78;;;7.40;99.90;;;11.18;100.00;101231.84;5029441;28;20120;-84
2024/01/26 05:36:57;;;;;;;15.40;7.10;;;7.40;99.90;;;11.11;100.00;101212.72;5030704;28;20038;-84
2024/01/26 05:39:23;;;;;;;14.57;7.00;;;7.40;99.90;;;11.23;100.00;101207.47;5029961;28;20049;-82
2024/01/26 05:41:49;;;;;;;14.27;7.10;;;7.40;99.90;;;11.40;100.00;101196.13;5028845;28;20037;-84
2024/01/26 05:44:15;;;;;;;15.52;7.18;;;7.40;99.90;;;11.45;100.00;101204.56;5045105;28;20045;-83
2024/01/26 05:46:40;;;;;;;15.00;6.47;;;7.40;99.90;;;11.28;100.00;101188.56;5040061;28;20060;-86
2024/01/26 05:49:06;;;;;;;17.88;7.55;;;7.50;99.90;;;11.70;100.00;101193.84;5047207;28;20055;-87
2024/01/26 05:51:32;;;;;;;15.02;6.22;;;7.50;99.90;;;11.37;100.00;101191.94;4999553;28;20392;-86
2024/01/26 05:53:57;;;;;;;16.98;6.20;;;7.50;99.90;;;11.53;100.00;101179.75;5031846;28;20049;-85
2024/01/26 05:56:24;;;;;;;10.07;5.50;;;7.50;99.90;;;11.22;100.00;101179.31;5032890;28;20033;-86
2024/01/26 05:58:50;;;;;;;14.65;5.25;;;7.50;99.90;;;10.99;100.00;101167.94;5030854;28;20040;-86
2024/01/26 06:01:16;;;;;;;10.38;4.80;;;7.60;99.90;;;10.84;100.00;101146.28;5032901;28;20049;-86
2024/01/26 06:03:41;;;;;;;11.48;5.57;;;7.50;99.90;;;11.00;100.00;101153.22;5019324;28;20056;-86
2024/01/26 06:06:07;;;;;;;9.70;5.18;;;7.50;99.90;;;10.84;100.00;101146.28;5031967;28;20053;-86
2024/01/26 06:08:33;;;;;;;12.43;5.20;;;7.50;99.90;;;11.34;100.00;101133.09;5004668;28;20048;-85
2024/01/26 06:10:59;;;;;;;14.25;5.55;;;7.60;99.90;;;11.26;100.00;101140.66;5024611;28;20157;-83
2024/01/26 06:13:25;;;;;;;10.80;4.95;;;7.60;99.90;;;11.17;100.00;101124.47;5013959;28;20041;-86
2024/01/26 06:15:51;;;;;;;11.43;5.70;;;7.70;99.90;;;11.57;100.00;101131.84;5031444;28;20044;-86
2024/01/26 06:18:17;;;;;;;11.82;5.38;;;7.70;99.90;;;11.25;100.00;101123.44;5029431;28;20932;-85
2024/01/26 06:20:43;;;;;;;13.45;5.57;;;7.80;99.90;;;11.14;100.00;101108.53;5021608;28;20069;-85
2024/01/26 06:23:09;;;;;;;8.55;5.32;;;7.80;99.90;;;11.25;100.00;101096.13;5023675;28;20127;-86
2024/01/26 06:25:35;;;;;;;11.85;5.80;;;7.80;99.90;;;11.14;100.00;101111.25;5026324;28;20034;-86
2024/01/26 06:28:01;;;;;;;10.57;5.50;;;7.90;99.90;;;11.34;100.00;101124.91;5021447;28;20127;-85
2024/01/26 06:30:28;;;;;;;13.40;5.68;;;7.90;99.90;;;11.71;100.00;101120.91;5031068;28;20041;-84
2024/01/26 06:32:54;;;;;;;10.32;5.80;;;7.90;99.90;;;11.51;100.00;101113.56;5030745;28;20490;-83
2024/01/26 06:35:20;;;;;;;12.07;5.80;;;8.00;99.90;;;11.72;100.00;101117.09;5029696;28;20385;-85
2024/01/26 06:37:46;;;;;;;10.50;6.15;;;8.00;99.90;;;12.02;100.00;101125.66;5038695;28;20034;-82
2024/01/26 06:40:13;;;;;;;8.98;5.43;;;8.10;99.90;;;11.98;100.00;101123.56;5029321;28;20087;-81
2024/01/26 06:42:42;;;;;;;10.40;5.37;;;8.10;99.90;;;12.04;100.00;101117.25;5022977;28;20092;-82
2024/01/26 06:45:10;;;;;;;9.32;5.78;;;8.10;99.90;;;12.56;100.00;101117.25;5029582;28;20555;-82
2024/01/26 06:47:36;;;;;;;10.13;5.28;;;8.20;99.90;;;12.59;100.00;101096.81;5047834;28;20086;-82
2024/01/26 06:50:03;;;;;;;11.80;5.55;;;8.10;99.90;;;12.45;100.00;101115.22;5032697;28;20060;-80
2024/01/26 06:52:29;;;;;;;9.10;5.43;;;8.20;99.90;;;12.58;100.00;101125.25;5031973;28;20560;-83
2024/01/26 06:54:55;;;;;;;9.10;5.53;;;8.20;99.90;;;13.08;100.00;101151.91;5032596;28;20053;-82
2024/01/26 06:57:21;;;;;;;13.10;5.63;;;8.20;99.90;;;12.88;100.00;101146.56;5015250;28;20136;-80
2024/01/26 06:59:46;;;;;;;9.57;5.63;;;8.20;99.90;;;13.09;100.00;101143.47;5032372;28;20041;-82
2024/01/26 07:02:12;;;;;;;9.25;5.70;;;8.30;99.90;;;13.19;100.00;101142.13;5030910;28;20087;-82
2024/01/26 07:04:38;;;;;;;8.45;5.57;;;8.30;99.90;;;12.90;100.00;101136.22;5030457;28;20393;-83
2024/01/26 07:07:03;;;;;;;10.13;5.50;;;8.40;99.90;;;12.77;100.00;101140.72;5031864;28;20065;-81
2024/01/26 07:09:29;;;;;;;8.63;5.53;;;8.40;99.90;;;12.80;100.00;101150.38;5031824;28;20055;-83
2024/01/26 07:11:57;;;;;;;10.02;5.90;;;8.40;99.90;;;12.40;100.00;101131.44;5015636;28;20497;-83
2024/01/26 07:14:23;;;;;;;;;;;8.40;99.90;;;12.50;100.00;101140.88;5032937;28;22050;-83
2024/01/26 07:16:50;;;;;;;7.22;4.93;;;8.40;99.90;;;12.45;100.00;101126.97;5010766;28;19923;-82
2024/01/26 07:19:15;;;;;;;8.93;5.65;;;8.50;99.90;;;13.32;100.00;101124.75;5009824;28;20115;-82
2024/01/26 07:21:41;;;;;;;11.00;6.10;;;8.50;99.90;;;13.21;100.00;101118.09;5032316;28;20037;-81
2024/01/26 07:24:08;;;;;;;9.13;5.10;;;8.50;99.90;;;13.19;100.00;101114.72;5031562;28;20071;-83
2024/01/26 07:26:33;;;;;;;8.48;5.60;;;8.60;99.90;;;13.87;100.00;101093.03;5031786;28;20508;-82
2024/01/26 07:28:59;;;;;;;7.72;4.85;;;8.70;99.90;;;13.04;100.00;101095.88;5009544;28;20045;-81
2024/01/26 07:31:25;;;;;;;7.10;4.78;;;8.70;99.90;;;12.94;100.00;101090.91;5013820;28;20058;-82
2024/01/26 07:33:51;;;;;;;8.45;4.45;;;8.80;99.90;;;13.14;100.00;101103.63;5030196;28;20030;-82
2024/01/26 07:36:16;;;;;;;9.55;5.20;;;8.90;99.90;;;13.12;100.00;101092.03;5030666;28;20038;-82
2024/01/26 07:38:42;;;;;;;7.82;4.55;;;8.90;99.90;;;13.26;100.00;101071.72;5031118;28;20034;-83
2024/01/26 07:41:08;;;;;;;11.32;5.30;;;8.90;99.90;;;13.11;100.00;101072.00;5031003;28;20372;-81
2024/01/26 07:43:34;;;;;;;10.60;4.53;;;9.00;99.90;;;13.40;100.00;101055.97;5016074;28;20041;-85
2024/01/26 07:45:59;;;;;;;8.20;4.38;;;9.00;99.90;;;13.12;100.00;101065.47;5015133;28;20109;-83
2024/01/26 07:48:25;;;;;;;6.95;4.32;;;9.10;99.90;;;12.90;100.00;101054.94;5028551;28;20033;-84
2024/01/26 07:50:51;;;;;;;10.02;4.43;;;9.10;99.90;;;12.95;100.00;101051.50;5033408;28;20590;-83
2024/01/26 07:53:17;;;;;;;7.28;4.70;;;9.20;99.90;;;13.58;100.00;101029.66;5014282;28;20041;-82
2024/01/26 07:55:43;;;;;;;11.68;5.35;;;9.20;99.90;;;13.47;100.00;101023.88;5030285;28;20057;-83
2024/01/26 07:58:08;;;;;;;8.63;4.82;;;9.20;99.90;;;13.87;100.00;101019.00;5032708;28;20037;-83
2024/01/26 08:00:35;;;;;;;9.32;4.55;;;9.20;99.90;;;13.22;100.00;101012.91;5025853;28;20049;-82
2024/01/26 08:03:01;;;;;;;7.28;4.47;;;9.30;99.90;;;13.52;100.00;101012.22;5008264;28;20073;-83
2024/01/26 08:05:27;;;;;;;8.65;4.38;;;;;;;14.21;100.00;101002.97;5015625;28;20091;-83
2024/01/26 08:07:53;;;;;;;9.85;4.70;;;9.40;99.90;;;12.99;100.00;100981.53;5030316;28;20061;-83
2024/01/26 08:10:18;;;;;;;7.53;4.40;;;9.50;99.90;;;13.05;100.00;100974.31;5031586;28;20037;-85
2024/01/26 08:12:45;;;;;;;6.97;4.20;;;9.50;99.90;;;13.12;100.00;100966.03;5030767;28;20045;-83
2024/01/26 08:15:11;;;;;;;7.53;4.35;;;9.50;99.90;;;13.86;100.00;100974.31;5030285;28;20030;-83
2024/01/26 08:17:37;;;;;;;9.30;5.00;;;9.50;99.90;;;13.95;100.00;100985.78;5030082;28;20045;-85
2024/01/26 08:20:05;;;;;;;7.25;4.65;;;9.50;99.90;;;14.04;100.00;100973.41;5030560;28;20030;-82
2024/01/26 08:22:32;;;;;;;7.45;4.32;;;;;;;14.17;100.00;100983.38;5011975;28;20064;-82
2024/01/26 08:25:00;;;;;;;9.63;4.78;;;9.60;99.90;;;14.47;100.00;100971.53;5030442;28;20036;-81
2024/01/26 08:27:27;;;;;;;8.60;4.35;;;9.70;99.90;;;14.20;100.00;100971.94;5029974;28;20099;-82
2024/01/26 08:29:53;;;;;;;9.57;5.20;;;9.80;99.90;;;14.74;100.00;100989.53;5030361;28;20029;-81
2024/01/26 08:32:19;;;;;;;8.18;4.53;;;9.80;99.90;;;14.36;100.00;100967.69;5012190;28;20045;-84
2024/01/26 08:34:45;;;;;;;8.48;4.63;;;9.80;99.90;;;14.30;100.00;100962.28;5029232;28;20087;-82
2024/01/26 08:37:11;;;;;;;8.15;4.82;;;9.80;99.90;;;14.24;100.00;100948.44;5027906;28;20553;-84
2024/01/26 08:39:37;;;;;;;9.73;5.05;;;9.90;99.90;;;14.47;100.00;100946.81;5030684;28;20045;-83
2024/01/26 08:42:04;;;;;;;8.75;5.20;;;9.80;99.90;;;14.28;100.00;100953.44;5018539;28;20465;-82
2024/01/26 08:44:30;;;;;;;9.85;5.18;;;9.90;99.90;;;14.58;100.00;100949.81;5030178;28;20047;-83
2024/01/26 08:46:57;;;;;;;10.18;5.50;;;9.90;99.90;;;14.20;100.00;100944.50;5013715;28;20044;-83
2024/01/26 08:49:23;;;;;;;9.23;5.25;;;9.90;99.90;;;14.21;100.00;100929.69;5030463;28;20041;-83
2024/01/26 08:51:51;;;;;;;10.98;5.50;;;9.90;99.90;;;14.80;100.00;100930.91;5029534;28;20405;-85
2024/01/26 08:54:17;;;;;;;11.30;5.85;;;10.00;99.90;;;14.53;100.00;100931.31;5030640;28;20033;-84
2024/01/26 08:56:43;;;;;;;9.75;5.22;;;9.90;99.90;;;14.44;100.00;100919.00;5030333;28;20358;-82
2024/01/26 08:59:09;;;;;;;8.50;5.20;;;10.00;99.90;;;14.39;100.00;100920.56;5030537;28;20040;-86
2024/01/26 09:01:36;;;;;;;9.43;4.82;;;9.90;99.90;;;14.25;100.00;100913.63;5025720;28;20033;-84
2024/01/26 09:04:05;;;;;;;15.65;6.00;;;9.70;99.90;;;13.85;100.00;100916.94;5026483;28;20045;-83
2024/01/26 09:06:37;;;;;;;9.55;5.70;;;9.60;99.90;;;13.76;100.00;100898.06;5030165;28;20041;-82
2024/01/26 09:09:04;;;;;;;9.40;5.72;;;9.50;99.90;;;13.75;100.00;100888.16;5028362;28;20064;-82
2024/01/26 09:11:30;;;;;;;9.27;4.78;;;9.40;99.90;;;13.57;100.00;100885.47;5011917;28;20493;-84
2024/01/26 09:13:57;;;;;;;10.80;5.78;;;9.30;99.90;;;13.62;100.00;100883.69;5012776;28;20041;-83
2024/01/26 09:16:23;;;;;;;11.57;5.65;;;9.30;99.90;;;12.86;100.00;100886.66;5030176;28;20060;-82
2024/01/26 09:18:49;;;;;;;12.75;5.93;;;9.20;99.90;;;12.51;100.00;100882.56;5029629;28;20488;-80
2024/01/26 09:21:15;;;;;;;11.45;5.40;;;9.20;99.90;;;12.56;100.00;100875.59;5008777;28;20143;-80
2024/01/26 09:23:43;;;;;;;11.13;5.03;;;9.20;99.90;;;12.57;100.00;100877.25;5043263;28;20038;-78
2024/01/26 09:26:10;;;;;;;10.85;5.88;;;9.20;99.90;;;12.31;100.00;100862.75;5030390;28;20037;-79
2024/01/26 09:28:36;;;;;;;9.83;4.90;;;9.20;99.90;;;12.29;100.00;100868.44;5029978;28;20037;-80
2024/01/26 09:31:02;;;;;;;8.85;4.78;;;9.20;99.90;;;12.50;100.00;100861.75;5028770;28;20357;-78
2024/01/26 09:33:28;;;;;;;11.50;5.57;;;9.20;99.90;;;12.58;100.00;100865.25;5044515;28;20188;-82
2024/01/26 09:35:56;;;;;;;14.23;5.25;;;9.10;99.90;;;12.73;100.00;100848.47;5043660;28;20053;-80
2024/01/26 09:38:22;;;;;;;9.43;5.20;;;9.10;99.90;;;12.94;100.00;100849.94;5044978;28;20374;-81
2024/01/26 09:40:48;;;;;;;9.85;4.55;;;9.10;99.90;;;12.74;100.00;100856.47;5028881;28;20433;-81
2024/01/26 09:43:15;;;;;;;9.98;5.53;;;9.00;99.90;;;13.24;100.00;100854.63;5012199;28;20052;-81
2024/01/26 09:45:41;;;;;;;9.55;5.10;;;9.10;99.90;;;13.07;100.00;100844.31;5029779;28;20040;-79
2024/01/26 09:48:09;;;;;;;8.88;4.55;;;9.10;99.90;;;13.13;100.00;100848.03;5006493;28;20543;-79
2024/01/26 09:50:36;;;;;;;8.75;4.35;;;9.10;99.90;;;12.41;100.00;100841.19;5016013;28;20083;-81
2024/01/26 09:53:03;;;;;;;10.30;4.45;;;9.10;99.90;;;12.39;100.00;100842.50;5029444;28;20179;-79
2024/01/26 09:55:32;;;;;;;9.65;3.92;;;9.10;99.90;;;12.36;100.00;100838.28;5014345;28;20374;-84
2024/01/26 09:57:59;;;;;;;6.55;3.55;;;9.10;99.90;;;12.37;100.00;100826.28;5028594;28;20049;-86
2024/01/26 10:00:25;;;;;;;7.63;4.18;;;9.10;99.90;;;12.50;100.00;100817.97;5029429;28;20523;-85
2024/01/26 10:02:51;;;;;;;8.15;3.58;;;9.10;99.90;;;13.31;100.00;100821.69;5031442;28;20137;-82
2024/01/26 10:05:18;;;;;;;6.40;3.60;;;9.10;99.90;;;13.26;100.00;100808.69;5028249;28;20099;-83
2024/01/26 10:07:46;;;;;;;6.43;3.47;;;9.10;99.90;;;13.77;100.00;100819.38;5045807;28;20036;-83